sensor_id;sensor_type;location;lat;lon;timestamp;pressure;altitude;pressure_sealevel;temperature;humidity
19236;BME280;9752;54.270;12.470;2024-02-26T00:01:09;100801.59;;;-0.28;100.00
19236;BME280;9752;54.270;12.470;2024-02-26T00:06:12;100800.66;;;-0.29;100.00
19236;BME280;9752;54.270;12.470;2024-02-26T00:11:13;100806.25;;;-0.49;100.00
19236;BME280;9752;54.270;12.470;2024-02-26T00:16:15;100805.56;;;-0.64;100.00
19236;BME280;9752;54.270;12.470;2024-02-26T00:21:18;100811.34;;;-0.73;100.00
19236;BME280;9752;54.270;12.470;2024-02-26T00:26:20;100811.19;;;-0.75;100.00
19236;BME280;9752;54.270;12.470;2024-02-26T00:31:21;100822.72;;;-0.54;100.00
19236;BME280;9752;54.270;12.470;2024-02-26T00:36:24;100831.84;;;-0.31;100.00
19236;BME280;9752;54.270;12.470;2024-02-26T00:41:26;100833.88;;;-0.45;100.00
19236;BME280;9752;54.270;12.470;2024-02-26T00:46:28;100836.66;;;-0.50;100.00
19236;BME280;9752;54.270;12.470;2024-02-26T00:51:31;100845.28;;;-0.41;100.00
19236;BME280;9752;54.270;12.470;2024-02-26T00:56:32;100856.44;;;-0.32;100.00
19236;BME280;9752;54.270;12.470;2024-02-26T01:01:34;100861.25;;;-0.26;100.00
19236;BME280;9752;54.270;12.470;2024-02-26T01:06:37;100862.59;;;-0.30;100.00
19236;BME280;9752;54.270;12.470;2024-02-26T01:11:39;100865.34;;;-0.20;100.00
19236;BME280;9752;54.270;12.470;2024-02-26T01:16:40;100865.22;;;-0.37;100.00
19236;BME280;9752;54.270;12.470;2024-02-26T01:21:44;100869.78;;;-0.50;100.00
19236;BME280;9752;54.270;12.470;2024-02-26T01:26:45;100872.25;;;-0.59;100.00
19236;BME280;9752;54.270;12.470;2024-02-26T01:31:47;100870.56;;;-0.67;100.00
19236;BME280;9752;54.270;12.470;2024-02-26T01:36:50;100879.19;;;-0.58;100.00
19236;BME280;9752;54.270;12.470;2024-02-26T01:41:52;100886.06;;;-0.57;100.00
19236;BME280;9752;54.270;12.470;2024-02-26T01:46:53;100899.25;;;-0.36;100.00
19236;BME280;9752;54.270;12.470;2024-02-26T01:51:57;100899.78;;;-0.48;100.00
19236;BME280;9752;54.270;12.470;2024-02-26T01:56:59;100888.56;;;-0.66;100.00
19236;BME280;9752;54.270;12.470;2024-02-26T02:02:03;100890.09;;;-0.59;100.00
19236;BME280;9752;54.270;12.470;2024-02-26T02:07:08;100900.50;;;-0.73;100.00
19236;BME280;9752;54.270;12.470;2024-02-26T02:12:09;100900.78;;;-0.70;100.00
19236;BME280;9752;54.270;12.470;2024-02-26T02:17:12;100890.31;;;-0.73;100.00
19236;BME280;9752;54.270;12.470;2024-02-26T02:22:15;100888.72;;;-0.80;100.00
19236;BME280;9752;54.270;12.470;2024-02-26T02:27:17;100904.09;;;-1.03;100.00
19236;BME280;9752;54.270;12.470;2024-02-26T02:32:19;100907.72;;;-1.01;100.00
19236;BME280;9752;54.270;12.470;2024-02-26T02:37:23;100913.47;;;-1.11;100.00
19236;BME280;9752;54.270;12.470;2024-02-26T02:42:24;100921.50;;;-0.99;100.00
19236;BME280;9752;54.270;12.470;2024-02-26T02:47:26;100932.09;;;-1.19;100.00
19236;BME280;9752;54.270;12.470;2024-02-26T02:52:29;100928.38;;;-1.30;100.00
19236;BME280;9752;54.270;12.470;2024-02-26T02:57:31;100931.28;;;-1.11;100.00
19236;BME280;9752;54.270;12.470;2024-02-26T03:02:33;100937.91;;;-1.36;100.00
19236;BME280;9752;54.270;12.470;2024-02-26T03:07:37;100930.16;;;-1.45;100.00
19236;BME280;9752;54.270;12.470;2024-02-26T03:12:39;100934.00;;;-1.48;100.00
19236;BME280;9752;54.270;12.470;2024-02-26T03:17:41;100931.44;;;-1.48;100.00
19236;BME280;9752;54.270;12.470;2024-02-26T03:22:43;100929.00;;;-1.55;100.00
19236;BME280;9752;54.270;12.470;2024-02-26T03:27:45;100934.84;;;-1.64;100.00
19236;BME280;9752;54.270;12.470;2024-02-26T03:32:47;100945.00;;;-1.41;100.00
19236;BME280;9752;54.270;12.470;2024-02-26T03:37:50;100953.56;;;-1.40;100.00
19236;BME280;9752;54.270;12.470;2024-02-26T03:42:52;100956.63;;;-1.59;100.00
19236;BME280;9752;54.270;12.470;2024-02-26T03:47:54;100959.22;;;-1.66;100.00
19236;BME280;9752;54.270;12.470;2024-02-26T03:52:57;100961.72;;;-1.82;100.00
19236;BME280;9752;54.270;12.470;2024-02-26T03:57:59;100966.47;;;-1.92;100.00
19236;BME280;9752;54.270;12.470;2024-02-26T04:03:01;100968.91;;;-2.01;100.00
19236;BME280;9752;54.270;12.470;2024-02-26T04:08:04;100974.75;;;-2.09;100.00
19236;BME280;9752;54.270;12.470;2024-02-26T04:13:07;100973.53;;;-2.12;100.00
19236;BME280;9752;54.270;12.470;2024-02-26T04:18:09;100977.28;;;-2.09;100.00
19236;BME280;9752;54.270;12.470;2024-02-26T04:23:12;100984.88;;;-2.02;100.00
19236;BME280;9752;54.270;12.470;2024-02-26T04:28:14;100984.56;;;-2.05;100.00
19236;BME280;9752;54.270;12.470;2024-02-26T04:33:15;100989.78;;;-2.03;100.00
19236;BME280;9752;54.270;12.470;2024-02-26T04:38:18;100996.22;;;-1.84;100.00
19236;BME280;9752;54.270;12.470;2024-02-26T04:43:20;101001.03;;;-2.01;100.00
19236;BME280;9752;54.270;12.470;2024-02-26T04:48:22;101003.44;;;-2.10;100.00
19236;BME280;9752;54.270;12.470;2024-02-26T04:53:25;101015.78;;;-2.13;100.00
19236;BME280;9752;54.270;12.470;2024-02-26T04:58:26;101020.97;;;-2.27;100.00
19236;BME280;9752;54.270;12.470;2024-02-26T05:03:28;101026.78;;;-2.36;100.00
19236;BME280;9752;54.270;12.470;2024-02-26T05:08:31;101028.03;;;-2.32;100.00
19236;BME280;9752;54.270;12.470;2024-02-26T05:13:34;101048.03;;;-1.98;100.00
19236;BME280;9752;54.270;12.470;2024-02-26T05:18:35;101053.06;;;-1.83;100.00
19236;BME280;9752;54.270;12.470;2024-02-26T05:23:38;101066.38;;;-1.93;100.00
19236;BME280;9752;54.270;12.470;2024-02-26T05:28:40;101081.16;;;-2.12;100.00
19236;BME280;9752;54.270;12.470;2024-02-26T05:33:41;101081.47;;;-2.02;100.00
19236;BME280;9752;54.270;12.470;2024-02-26T05:38:44;101094.13;;;-1.87;100.00
19236;BME280;9752;54.270;12.470;2024-02-26T05:43:47;101095.88;;;-1.79;100.00
19236;BME280;9752;54.270;12.470;2024-02-26T05:48:51;101120.53;;;-2.08;100.00
19236;BME280;9752;54.270;12.470;2024-02-26T05:53:55;101118.56;;;-2.18;100.00
19236;BME280;9752;54.270;12.470;2024-02-26T05:58:56;101135.22;;;-2.13;100.00
19236;BME280;9752;54.270;12.470;2024-02-26T06:03:58;101124.00;;;-2.22;100.00
19236;BME280;9752;54.270;12.470;2024-02-26T06:09:01;101128.38;;;-2.21;100.00
19236;BME280;9752;54.270;12.470;2024-02-26T06:14:05;101145.41;;;-2.20;100.00
19236;BME280;9752;54.270;12.470;2024-02-26T06:19:07;101150.50;;;-2.20;100.00
19236;BME280;9752;54.270;12.470;2024-02-26T06:24:10;101156.44;;;-2.05;100.00
19236;BME280;9752;54.270;12.470;2024-02-26T06:29:11;101172.38;;;-1.85;100.00
19236;BME280;9752;54.270;12.470;2024-02-26T06:34:13;101175.78;;;-1.70;100.00
19236;BME280;9752;54.270;12.470;2024-02-26T06:39:16;101186.38;;;-1.44;100.00
19236;BME280;9752;54.270;12.470;2024-02-26T06:44:18;101207.88;;;-1.19;100.00
19236;BME280;9752;54.270;12.470;2024-02-26T06:49:19;101209.81;;;-1.09;100.00
19236;BME280;9752;54.270;12.470;2024-02-26T06:54:22;101216.91;;;-1.06;100.00
19236;BME280;9752;54.270;12.470;2024-02-26T06:59:24;101225.31;;;-0.91;100.00
19236;BME280;9752;54.270;12.470;2024-02-26T07:04:26;101239.28;;;-0.81;100.00
19236;BME280;9752;54.270;12.470;2024-02-26T07:09:29;101253.41;;;-0.68;100.00
19236;BME280;9752;54.270;12.470;2024-02-26T07:14:30;101263.47;;;-0.54;100.00
19236;BME280;9752;54.270;12.470;2024-02-26T07:19:33;101270.31;;;-0.46;100.00
19236;BME280;9752;54.270;12.470;2024-02-26T07:24:36;101280.22;;;-0.10;100.00
19236;BME280;9752;54.270;12.470;2024-02-26T07:29:37;101277.16;;;0.09;100.00
19236;BME280;9752;54.270;12.470;2024-02-26T07:34:39;101284.78;;;0.48;100.00
19236;BME280;9752;54.270;12.470;2024-02-26T07:39:43;101306.59;;;0.69;100.00
19236;BME280;9752;54.270;12.470;2024-02-26T07:44:45;101313.00;;;0.97;100.00
19236;BME280;9752;54.270;12.470;2024-02-26T07:49:46;101315.91;;;1.25;100.00
19236;BME280;9752;54.270;12.470;2024-02-26T07:54:49;101331.69;;;1.45;100.00
19236;BME280;9752;54.270;12.470;2024-02-26T07:59:51;101344.03;;;1.49;100.00
19236;BME280;9752;54.270;12.470;2024-02-26T08:04:52;101333.34;;;1.69;100.00
19236;BME280;9752;54.270;12.470;2024-02-26T08:09:55;101340.91;;;1.77;100.00
19236;BME280;9752;54.270;12.470;2024-02-26T08:14:58;101348.16;;;1.81;100.00
19236;BME280;9752;54.270;12.470;2024-02-26T08:20:01;101353.16;;;2.21;100.00
19236;BME280;9752;54.270;12.470;2024-02-26T08:25:05;101359.66;;;2.26;100.00
19236;BME280;9752;54.270;12.470;2024-02-26T08:30:10;101356.59;;;2.55;100.00
19236;BME280;9752;54.270;12.470;2024-02-26T08:35:13;101359.75;;;2.61;100.00
19236;BME280;9752;54.270;12.470;2024-02-26T08:40:17;101365.97;;;2.81;100.00
19236;BME280;9752;54.270;12.470;2024-02-26T08:45:19;101378.63;;;2.88;100.00
19236;BME280;9752;54.270;12.470;2024-02-26T08:50:21;101382.59;;;3.19;100.00
19236;BME280;9752;54.270;12.470;2024-02-26T08:55:24;101386.06;;;3.37;100.00
19236;BME280;9752;54.270;12.470;2024-02-26T09:00:26;101401.56;;;3.74;100.00
19236;BME280;9752;54.270;12.470;2024-02-26T09:05:27;101403.63;;;4.04;100.00
19236;BME280;9752;54.270;12.470;2024-02-26T09:10:30;101400.13;;;4.12;100.00
19236;BME280;9752;54.270;12.470;2024-02-26T09:15:33;101398.59;;;4.59;100.00
19236;BME280;9752;54.270;12.470;2024-02-26T09:20:34;101409.69;;;4.96;100.00
19236;BME280;9752;54.270;12.470;2024-02-26T09:25:37;101405.22;;;5.13;100.00
19236;BME280;9752;54.270;12.470;2024-02-26T09:30:39;101407.47;;;5.37;100.00
19236;BME280;9752;54.270;12.470;2024-02-26T09:35:41;101405.78;;;5.57;100.00
19236;BME280;9752;54.270;12.470;2024-02-26T09:40:44;101374.34;;;5.80;100.00
19236;BME280;9752;54.270;12.470;2024-02-26T09:45:46;101352.88;;;5.79;100.00
19236;BME280;9752;54.270;12.470;2024-02-26T09:50:49;101335.63;;;6.08;100.00
19236;BME280;9752;54.270;12.470;2024-02-26T09:55:52;101285.03;;;6.29;100.00
19236;BME280;9752;54.270;12.470;2024-02-26T10:00:56;101266.47;;;6.63;100.00
19236;BME280;9752;54.270;12.470;2024-02-26T10:05:58;101242.50;;;6.75;100.00
19236;BME280;9752;54.270;12.470;2024-02-26T10:11:04;101220.34;;;7.09;100.00
19236;BME280;9752;54.270;12.470;2024-02-26T10:16:06;101207.22;;;7.38;100.00
19236;BME280;9752;54.270;12.470;2024-02-26T10:21:08;101202.78;;;7.70;100.00
19236;BME280;9752;54.270;12.470;2024-02-26T10:26:12;101174.41;;;8.04;100.00
19236;BME280;9752;54.270;12.470;2024-02-26T10:31:14;101168.81;;;8.09;100.00
19236;BME280;9752;54.270;12.470;2024-02-26T10:36:16;101145.25;;;8.28;100.00
19236;BME280;9752;54.270;12.470;2024-02-26T10:41:19;101148.88;;;8.42;100.00
19236;BME280;9752;54.270;12.470;2024-02-26T10:46:21;101141.25;;;8.55;100.00
19236;BME280;9752;54.270;12.470;2024-02-26T10:51:26;101148.91;;;8.89;100.00
19236;BME280;9752;54.270;12.470;2024-02-26T10:56:30;101149.63;;;9.35;100.00
19236;BME280;9752;54.270;12.470;2024-02-26T11:01:35;101152.13;;;9.59;100.00
19236;BME280;9752;54.270;12.470;2024-02-26T11:06:39;101152.97;;;9.71;100.00
19236;BME280;9752;54.270;12.470;2024-02-26T11:11:42;101149.84;;;9.89;100.00
19236;BME280;9752;54.270;12.470;2024-02-26T11:16:45;101135.84;;;9.73;100.00
19236;BME280;9752;54.270;12.470;2024-02-26T11:21:47;101132.09;;;9.56;100.00
19236;BME280;9752;54.270;12.470;2024-02-26T11:26:52;101133.75;;;9.56;100.00
19236;BME280;9752;54.270;12.470;2024-02-26T11:31:59;101139.22;;;9.72;100.00
19236;BME280;9752;54.270;12.470;2024-02-26T11:37:09;101141.09;;;9.87;100.00
19236;BME280;9752;54.270;12.470;2024-02-26T11:42:14;101134.19;;;9.87;100.00
19236;BME280;9752;54.270;12.470;2024-02-26T11:47:18;101139.28;;;9.86;100.00
19236;BME280;9752;54.270;12.470;2024-02-26T11:52:20;101145.53;;;9.76;100.00
19236;BME280;9752;54.270;12.470;2024-02-26T11:57:24;101142.44;;;9.82;100.00
19236;BME280;9752;54.270;12.470;2024-02-26T12:02:45;101147.94;;;9.86;100.00
19236;BME280;9752;54.270;12.470;2024-02-26T12:07:48;101141.34;;;9.78;100.00
19236;BME280;9752;54.270;12.470;2024-02-26T12:12:55;101140.69;;;9.94;100.00
19236;BME280;9752;54.270;12.470;2024-02-26T12:18:01;101133.13;;;9.97;100.00
19236;BME280;9752;54.270;12.470;2024-02-26T12:23:04;101143.44;;;10.22;100.00
19236;BME280;9752;54.270;12.470;2024-02-26T12:28:07;101145.91;;;10.32;100.00
19236;BME280;9752;54.270;12.470;2024-02-26T12:33:09;101143.84;;;10.40;100.00
19236;BME280;9752;54.270;12.470;2024-02-26T12:38:12;101155.03;;;10.27;100.00
19236;BME280;9752;54.270;12.470;2024-02-26T12:43:15;101151.00;;;10.06;100.00
19236;BME280;9752;54.270;12.470;2024-02-26T12:48:17;101148.84;;;10.25;100.00
19236;BME280;9752;54.270;12.470;2024-02-26T12:53:19;101164.41;;;10.25;100.00
19236;BME280;9752;54.270;12.470;2024-02-26T12:58:22;101163.19;;;10.20;100.00
19236;BME280;9752;54.270;12.470;2024-02-26T13:03:25;101167.50;;;10.20;100.00
19236;BME280;9752;54.270;12.470;2024-02-26T13:08:27;101175.44;;;10.34;100.00
19236;BME280;9752;54.270;12.470;2024-02-26T13:13:30;101178.44;;;10.15;100.00
19236;BME280;9752;54.270;12.470;2024-02-26T13:18:32;101177.63;;;10.16;100.00
19236;BME280;9752;54.270;12.470;2024-02-26T13:23:35;101192.00;;;10.11;100.00
19236;BME280;9752;54.270;12.470;2024-02-26T13:28:38;101201.72;;;10.02;100.00
19236;BME280;9752;54.270;12.470;2024-02-26T13:33:39;101207.50;;;9.98;100.00
19236;BME280;9752;54.270;12.470;2024-02-26T13:38:51;101213.44;;;10.22;100.00
19236;BME280;9752;54.270;12.470;2024-02-26T13:43:54;101218.28;;;10.04;100.00
19236;BME280;9752;54.270;12.470;2024-02-26T13:48:58;101226.94;;;9.80;100.00
19236;BME280;9752;54.270;12.470;2024-02-26T13:53:59;101224.81;;;9.74;100.00
19236;BME280;9752;54.270;12.470;2024-02-26T13:59:02;101227.28;;;9.35;100.00
19236;BME280;9752;54.270;12.470;2024-02-26T14:04:04;101228.06;;;9.34;100.00
19236;BME280;9752;54.270;12.470;2024-02-26T14:09:07;101235.97;;;9.24;100.00
19236;BME280;9752;54.270;12.470;2024-02-26T14:14:11;101241.34;;;9.15;100.00
19236;BME280;9752;54.270;12.470;2024-02-26T14:19:12;101242.94;;;9.02;100.00
19236;BME280;9752;54.270;12.470;2024-02-26T14:24:15;101255.75;;;9.12;100.00
19236;BME280;9752;54.270;12.470;2024-02-26T14:29:18;101256.22;;;8.94;100.00
19236;BME280;9752;54.270;12.470;2024-02-26T14:34:20;101262.72;;;8.89;100.00
19236;BME280;9752;54.270;12.470;2024-02-26T14:39:21;101261.50;;;8.96;100.00
19236;BME280;9752;54.270;12.470;2024-02-26T14:44:25;101270.97;;;8.50;100.00
19236;BME280;9752;54.270;12.470;2024-02-26T14:49:29;101264.06;;;8.38;100.00
19236;BME280;9752;54.270;12.470;2024-02-26T14:54:32;101270.44;;;8.32;100.00
19236;BME280;9752;54.270;12.470;2024-02-26T14:59:39;101281.50;;;8.41;100.00
19236;BME280;9752;54.270;12.470;2024-02-26T15:04:40;101286.06;;;8.33;100.00
19236;BME280;9752;54.270;12.470;2024-02-26T15:09:42;101298.16;;;8.00;100.00
19236;BME280;9752;54.270;12.470;2024-02-26T15:14:45;101303.81;;;7.85;100.00
19236;BME280;9752;54.270;12.470;2024-02-26T15:19:47;101308.00;;;7.72;100.00
19236;BME280;9752;54.270;12.470;2024-02-26T15:24:49;101318.94;;;7.48;100.00
19236;BME280;9752;54.270;12.470;2024-02-26T15:29:52;101323.41;;;7.18;100.00
19236;BME280;9752;54.270;12.470;2024-02-26T15:34:58;101333.47;;;7.15;100.00
19236;BME280;9752;54.270;12.470;2024-02-26T15:40:00;101337.34;;;6.99;100.00
19236;BME280;9752;54.270;12.470;2024-02-26T15:45:03;101342.91;;;6.73;100.00
19236;BME280;9752;54.270;12.470;2024-02-26T15:50:06;101366.13;;;6.63;100.00
19236;BME280;9752;54.270;12.470;2024-02-26T15:55:08;101361.59;;;6.40;100.00
19236;BME280;9752;54.270;12.470;2024-02-26T16:00:15;101363.50;;;6.32;100.00
19236;BME280;9752;54.270;12.470;2024-02-26T16:05:17;101376.09;;;6.19;100.00
19236;BME280;9752;54.270;12.470;2024-02-26T16:10:19;101373.75;;;6.12;100.00
19236;BME280;9752;54.270;12.470;2024-02-26T16:15:23;101379.63;;;6.00;100.00
19236;BME280;9752;54.270;12.470;2024-02-26T16:20:25;101386.47;;;5.81;100.00
19236;BME280;9752;54.270;12.470;2024-02-26T16:25:29;101386.91;;;5.66;100.00
19236;BME280;9752;54.270;12.470;2024-02-26T16:30:32;101394.16;;;5.52;100.00
19236;BME280;9752;54.270;12.470;2024-02-26T16:35:34;101405.91;;;5.39;100.00
19236;BME280;9752;54.270;12.470;2024-02-26T16:40:37;101408.84;;;5.15;100.00
19236;BME280;9752;54.270;12.470;2024-02-26T16:45:43;101419.69;;;4.93;100.00
19236;BME280;9752;54.270;12.470;2024-02-26T16:50:44;101421.19;;;4.72;100.00
19236;BME280;9752;54.270;12.470;2024-02-26T16:55:46;101432.25;;;4.62;100.00
19236;BME280;9752;54.270;12.470;2024-02-26T17:00:49;101440.91;;;4.54;100.00
19236;BME280;9752;54.270;12.470;2024-02-26T17:05:51;101450.78;;;4.41;100.00
19236;BME280;9752;54.270;12.470;2024-02-26T17:10:53;101457.78;;;4.24;100.00
19236;BME280;9752;54.270;12.470;2024-02-26T17:15:56;101474.59;;;4.12;100.00
19236;BME280;9752;54.270;12.470;2024-02-26T17:20:58;101484.56;;;3.91;100.00
19236;BME280;9752;54.270;12.470;2024-02-26T17:25:59;101496.78;;;3.68;100.00
19236;BME280;9752;54.270;12.470;2024-02-26T17:31:03;101510.06;;;3.46;100.00
19236;BME280;9752;54.270;12.470;2024-02-26T17:36:05;101516.50;;;3.25;100.00
19236;BME280;9752;54.270;12.470;2024-02-26T17:41:09;101525.63;;;2.97;100.00
19236;BME280;9752;54.270;12.470;2024-02-26T17:46:14;101535.28;;;2.66;100.00
19236;BME280;9752;54.270;12.470;2024-02-26T17:51:15;101546.94;;;2.47;100.00
19236;BME280;9752;54.270;12.470;2024-02-26T17:56:17;101550.72;;;2.26;100.00
19236;BME280;9752;54.270;12.470;2024-02-26T18:01:21;101556.28;;;2.06;100.00
19236;BME280;9752;54.270;12.470;2024-02-26T18:06:22;101556.88;;;1.87;100.00
19236;BME280;9752;54.270;12.470;2024-02-26T18:11:24;101559.94;;;1.76;100.00
19236;BME280;9752;54.270;12.470;2024-02-26T18:16:27;101568.44;;;1.68;100.00
19236;BME280;9752;54.270;12.470;2024-02-26T18:21:29;101598.47;;;1.62;100.00
19236;BME280;9752;54.270;12.470;2024-02-26T18:26:31;101611.09;;;1.76;100.00
19236;BME280;9752;54.270;12.470;2024-02-26T18:31:35;101618.69;;;1.83;100.00
19236;BME280;9752;54.270;12.470;2024-02-26T18:36:42;101624.69;;;1.68;100.00
19236;BME280;9752;54.270;12.470;2024-02-26T18:41:43;101629.06;;;1.53;100.00
19236;BME280;9752;54.270;12.470;2024-02-26T18:46:46;101644.56;;;1.54;100.00
19236;BME280;9752;54.270;12.470;2024-02-26T18:51:48;101654.78;;;1.54;100.00
19236;BME280;9752;54.270;12.470;2024-02-26T18:56:50;101666.72;;;1.47;100.00
19236;BME280;9752;54.270;12.470;2024-02-26T19:01:53;101680.56;;;1.33;100.00
19236;BME280;9752;54.270;12.470;2024-02-26T19:06:54;101693.06;;;0.92;100.00
19236;BME280;9752;54.270;12.470;2024-02-26T19:11:56;101698.41;;;1.10;100.00
19236;BME280;9752;54.270;12.470;2024-02-26T19:16:59;101709.78;;;1.51;100.00
19236;BME280;9752;54.270;12.470;2024-02-26T19:22:01;101719.16;;;1.66;100.00
19236;BME280;9752;54.270;12.470;2024-02-26T19:27:03;101728.88;;;1.62;100.00
19236;BME280;9752;54.270;12.470;2024-02-26T19:32:06;101737.84;;;1.58;100.00
19236;BME280;9752;54.270;12.470;2024-02-26T19:37:11;101751.28;;;1.48;100.00
19236;BME280;9752;54.270;12.470;2024-02-26T19:42:13;101757.97;;;1.55;100.00
19236;BME280;9752;54.270;12.470;2024-02-26T19:47:16;101766.72;;;1.57;100.00
19236;BME280;9752;54.270;12.470;2024-02-26T19:52:17;101769.31;;;1.50;100.00
19236;BME280;9752;54.270;12.470;2024-02-26T19:57:20;101776.09;;;1.49;100.00
19236;BME280;9752;54.270;12.470;2024-02-26T20:02:23;101790.78;;;1.36;100.00
19236;BME280;9752;54.270;12.470;2024-02-26T20:07:25;101787.16;;;1.34;100.00
19236;BME280;9752;54.270;12.470;2024-02-26T20:12:28;101794.81;;;1.34;100.00
19236;BME280;9752;54.270;12.470;2024-02-26T20:17:31;101803.13;;;1.47;100.00
19236;BME280;9752;54.270;12.470;2024-02-26T20:22:33;101811.44;;;1.61;100.00
19236;BME280;9752;54.270;12.470;2024-02-26T20:27:35;101814.84;;;1.45;100.00
19236;BME280;9752;54.270;12.470;2024-02-26T20:32:38;101837.88;;;1.68;100.00
19236;BME280;9752;54.270;12.470;2024-02-26T20:37:39;101848.53;;;1.57;100.00
19236;BME280;9752;54.270;12.470;2024-02-26T20:42:43;101869.16;;;1.28;100.00
19236;BME280;9752;54.270;12.470;2024-02-26T20:47:47;101878.00;;;1.16;100.00
19236;BME280;9752;54.270;12.470;2024-02-26T20:52:51;101889.28;;;1.18;100.00
19236;BME280;9752;54.270;12.470;2024-02-26T20:57:53;101908.75;;;1.32;100.00
19236;BME280;9752;54.270;12.470;2024-02-26T21:02:57;101914.06;;;1.33;100.00
19236;BME280;9752;54.270;12.470;2024-02-26T21:08:00;101930.84;;;1.31;100.00
19236;BME280;9752;54.270;12.470;2024-02-26T21:13:02;101939.47;;;1.17;100.00
19236;BME280;9752;54.270;12.470;2024-02-26T21:18:06;101984.06;;;0.98;100.00
19236;BME280;9752;54.270;12.470;2024-02-26T21:23:08;101992.09;;;0.94;100.00
19236;BME280;9752;54.270;12.470;2024-02-26T21:28:12;102001.19;;;1.13;100.00
19236;BME280;9752;54.270;12.470;2024-02-26T21:33:15;102010.63;;;1.36;100.00
19236;BME280;9752;54.270;12.470;2024-02-26T21:38:17;102016.78;;;1.45;100.00
19236;BME280;9752;54.270;12.470;2024-02-26T21:43:20;102056.63;;;1.43;100.00
19236;BME280;9752;54.270;12.470;2024-02-26T21:48:24;102072.47;;;1.48;100.00
19236;BME280;9752;54.270;12.470;2024-02-26T21:53:25;102076.34;;;1.44;100.00
19236;BME280;9752;54.270;12.470;2024-02-26T21:58:27;102098.03;;;1.48;100.00
19236;BME280;9752;54.270;12.470;2024-02-26T22:03:30;102105.38;;;1.45;100.00
19236;BME280;9752;54.270;12.470;2024-02-26T22:08:31;102112.53;;;1.19;100.00
19236;BME280;9752;54.270;12.470;2024-02-26T22:13:33;102119.28;;;1.04;100.00
19236;BME280;9752;54.270;12.470;2024-02-26T22:18:36;102126.38;;;1.06;100.00
19236;BME280;9752;54.270;12.470;2024-02-26T22:23:38;102135.16;;;0.94;100.00
19236;BME280;9752;54.270;12.470;2024-02-26T22:28:41;102153.38;;;1.04;100.00
19236;BME280;9752;54.270;12.470;2024-02-26T22:33:44;102159.97;;;1.02;100.00
19236;BME280;9752;54.270;12.470;2024-02-26T22:38:45;102171.66;;;1.07;100.00
19236;BME280;9752;54.270;12.470;2024-02-26T22:43:48;102165.28;;;1.11;100.00
19236;BME280;9752;54.270;12.470;2024-02-26T22:48:51;102182.94;;;1.02;100.00
19236;BME280;9752;54.270;12.470;2024-02-26T22:53:53;102184.38;;;0.78;100.00
19236;BME280;9752;54.270;12.470;2024-02-26T22:58:55;102195.88;;;0.75;100.00
19236;BME280;9752;54.270;12.470;2024-02-26T23:03:58;102203.16;;;0.79;100.00
19236;BME280;9752;54.270;12.470;2024-02-26T23:08:59;102203.03;;;0.99;100.00
19236;BME280;9752;54.270;12.470;2024-02-26T23:14:01;102213.78;;;0.89;100.00
19236;BME280;9752;54.270;12.470;2024-02-26T23:19:04;102219.41;;;0.87;100.00
19236;BME280;9752;54.270;12.470;2024-02-26T23:24:07;102223.84;;;0.95;100.00
19236;BME280;9752;54.270;12.470;2024-02-26T23:29:09;102223.47;;;1.06;100.00
19236;BME280;9752;54.270;12.470;2024-02-26T23:34:12;102225.63;;;0.82;100.00
19236;BME280;9752;54.270;12.470;2024-02-26T23:39:13;102223.72;;;0.66;100.00
19236;BME280;9752;54.270;12.470;2024-02-26T23:44:15;102234.75;;;0.87;100.00
19236;BME280;9752;54.270;12.470;2024-02-26T23:49:18;102250.47;;;0.90;100.00
19236;BME280;9752;54.270;12.470;2024-02-26T23:54:20;102255.59;;;0.97;100.00
19236;BME280;9752;54.270;12.470;2024-02-26T23:59:21;102271.28;;;1.00;100.00
